Vision of The Seas — C6SE8 — position and weather

sailwx.info

Track history (hours):
 
Tides and Currents Weather Stations Pressure Air Temp Water Temp Dewpoint Dewpoint Depression Visibility Wind Speed Wind Dir Waves Ship Positions

Vision of The Seas

Operator: Royal Caribbean Cruises Ltd

Last reported at 2019-Aug-22 09:30 UTC. Time now 2019-Aug-22 09:32 UTC.
Position N 41°22' E 002°11'.

Type: Passenger vessel. MMSI: 311321000.

Date/timePositionNaut miles runAvg speedWind from/ knotsBaromVisibWave heightAir tempDewpointWater temp
2019-Aug-22 09:30N 41°22' E 002°11'0 0.0
2019-Aug-22 09:00N 41°22' E 002°11'0 0.0
2019-Aug-22 08:30N 41°22' E 002°11'0 0.0
2019-Aug-22 08:00N 41°22' E 002°11'0 0.0
2019-Aug-22 07:30N 41°22' E 002°11'0 0.0
2019-Aug-22 07:00N 41°22' E 002°11'0 0.0
2019-Aug-22 06:27N 41°22' E 002°11'0 0.0
2019-Aug-22 06:00N 41°22' E 002°11'0 0.0
2019-Aug-22 05:30N 41°22' E 002°11'0 0.0
2019-Aug-22 04:57N 41°22' E 002°11'0 0.0
2019-Aug-22 04:30N 41°22' E 002°11'0 0.0
2019-Aug-22 04:01N 41°22' E 002°11'1 1.7
2019-Aug-22 03:30N 41°21' E 002°10'4 7.4
2019-Aug-22 03:01N 41°17' E 002°11'714.2
2019-Aug-22 02:30N 41°12' E 002°18'2919.2
2019-Aug-22 01:00N 40°54' E 002°48'37216.9 330 / 81018.010.8 23.0
2019-Aug-21 03:00N 38°36' E 010°18'12718.1 160 / 111017.010.8 24.0
2019-Aug-20 19:57N 38°27' E 013°00'817.4
2019-Aug-20 19:31N 38°26' E 013°10'917.6
2019-Aug-20 19:01N 38°25' E 013°21'917.6
2019-Aug-20 18:30N 38°25' E 013°33'1117.4
2019-Aug-20 17:51N 38°24' E 013°47'5417.6
2019-Aug-20 14:47N 38°20' E 014°56'517.8
2019-Aug-20 14:30N 38°20' E 015°02'917.9
2019-Aug-20 14:00N 38°20' E 015°14'917.9
2019-Aug-20 13:31N 38°20' E 015°25'917.7
2019-Aug-20 13:01N 38°20' E 015°36'7 7.4
2019-Aug-20 12:05N 38°13' E 015°37'216.3
2019-Aug-20 11:56N 38°11' E 015°37'917.6
2019-Aug-20 11:27N 38°03' E 015°36'817.8
2019-Aug-20 11:00N 37°55' E 015°40'1217.9
2019-Aug-20 10:20N 37°51' E 015°54'279 8.6
2019-Aug-19 02:00N 42°18' E 017°42'167 7.5 300 / 51016.010.8 23.0
2019-Aug-18 03:43N 43°54' E 014°35'421.0
2019-Aug-18 03:30N 43°55' E 014°29'3724.7
2019-Aug-18 02:00N 44°18' E 013°48'550.3 040 / 51016.010.8 24.0
2019-Aug-18 01:54N 44°16' E 013°54'1021.4
2019-Aug-18 01:27N 44°24' E 013°46'921.3
2019-Aug-18 01:00N 44°32' E 013°39'1121.2
2019-Aug-18 00:30N 44°40' E 013°30'1121.4
2019-Aug-18 00:00N 44°49' E 013°22'1121.3
2019-Aug-17 23:30N 44°58' E 013°13'1121.3
2019-Aug-17 23:00N 45°05' E 013°02'1121.4
2019-Aug-17 22:30N 45°12' E 012°50'1019.3
2019-Aug-17 22:00N 45°18' E 012°40'816.0
2019-Aug-17 21:30N 45°23' E 012°30'510.3
2019-Aug-17 21:00N 45°26' E 012°24'2 4.7
2019-Aug-17 20:30N 45°26' E 012°21'2 4.0
2019-Aug-17 20:00N 45°26' E 012°18'0 0.9
2019-Aug-17 19:28N 45°26' E 012°18'0 0.0
2019-Aug-17 18:58N 45°26' E 012°18'0 0.0
2019-Aug-17 18:28N 45°26' E 012°18'0 0.0
2019-Aug-17 17:28N 45°26' E 012°18'0 0.0
2019-Aug-17 16:58N 45°26' E 012°18'0 0.0
2019-Aug-17 16:28N 45°26' E 012°18'0 0.0
2019-Aug-17 15:58N 45°26' E 012°18'0 0.0
2019-Aug-17 15:28N 45°26' E 012°18'0 0.0
2019-Aug-17 14:58N 45°26' E 012°18'0 0.0
2019-Aug-17 14:28N 45°26' E 012°18'0 0.0
2019-Aug-17 13:58N 45°26' E 012°18'0 0.0
2019-Aug-17 13:19N 45°26' E 012°18'0 0.0
2019-Aug-17 12:58N 45°26' E 012°18'0 0.0
2019-Aug-17 12:28N 45°26' E 012°18'0 0.0
2019-Aug-17 11:49N 45°26' E 012°18'0 0.0
2019-Aug-17 11:28N 45°26' E 012°18'0 0.0
2019-Aug-17 10:58N 45°26' E 012°18'0 0.0
2019-Aug-17 10:22N 45°26' E 012°18'0 0.0
2019-Aug-17 09:58N 45°26' E 012°18'0 0.0
2019-Aug-17 09:19N 45°26' E 012°18'0 0.0
2019-Aug-17 08:58N 45°26' E 012°18'0 0.0
2019-Aug-17 08:28N 45°26' E 012°18'0 0.0
2019-Aug-17 07:58N 45°26' E 012°18'0 0.0
2019-Aug-17 07:28N 45°26' E 012°18'0 0.0
2019-Aug-17 06:49N 45°26' E 012°18'0 0.0
2019-Aug-17 06:22N 45°26' E 012°18'0 0.0
2019-Aug-17 05:58N 45°26' E 012°18'0 0.0
2019-Aug-17 05:28N 45°26' E 012°18'0 0.0
2019-Aug-17 04:58N 45°26' E 012°18'0 0.0
2019-Aug-17 04:28N 45°26' E 012°18'0 0.0
2019-Aug-17 03:58N 45°26' E 012°18'0 0.0
2019-Aug-17 03:28N 45°26' E 012°18'0 0.0
2019-Aug-17 02:58N 45°26' E 012°18'0 0.0
2019-Aug-17 02:28N 45°26' E 012°18'0 0.0
2019-Aug-17 01:58N 45°26' E 012°18'0 0.0
2019-Aug-17 01:28N 45°26' E 012°18'0 0.0
2019-Aug-17 00:58N 45°26' E 012°18'0 0.0
2019-Aug-17 00:28N 45°26' E 012°18'0 0.0
2019-Aug-16 23:58N 45°26' E 012°18'0 0.0
2019-Aug-16 23:28N 45°26' E 012°18'0 0.0
2019-Aug-16 22:58N 45°26' E 012°18'0 0.0
2019-Aug-16 22:28N 45°26' E 012°18'0 0.0
2019-Aug-16 21:58N 45°26' E 012°18'0 0.0
2019-Aug-16 21:25N 45°26' E 012°18'0 0.0
2019-Aug-16 20:55N 45°26' E 012°18'0 0.0
2019-Aug-16 20:28N 45°26' E 012°18'0 0.0
2019-Aug-16 19:58N 45°26' E 012°18'0 0.0
2019-Aug-16 19:28N 45°26' E 012°18'0 0.0
2019-Aug-16 18:58N 45°26' E 012°18'0 0.0
2019-Aug-16 18:28N 45°26' E 012°18'0 0.0
2019-Aug-16 17:55N 45°26' E 012°18'0 0.0
2019-Aug-16 17:28N 45°26' E 012°18'0 0.0
2019-Aug-16 16:55N 45°26' E 012°18'0 0.0
2019-Aug-16 16:28N 45°26' E 012°18'0 0.0
2019-Aug-16 15:58N 45°26' E 012°18'0 0.0
2019-Aug-16 15:28N 45°26' E 012°18'0 0.0
2019-Aug-16 14:55N 45°26' E 012°18'0 0.0
2019-Aug-16 14:28N 45°26' E 012°18'0 0.0
2019-Aug-16 13:55N 45°26' E 012°18'0 0.0
2019-Aug-16 13:25N 45°26' E 012°18'0 0.3
2019-Aug-16 13:00N 45°26' E 012°18'2 3.1
2019-Aug-16 12:30N 45°26' E 012°20'2 4.3
2019-Aug-16 12:00N 45°26' E 012°23'4 8.1
2019-Aug-16 11:30N 45°24' E 012°28'713.9
2019-Aug-16 11:00N 45°18' E 012°32'816.2
2019-Aug-16 10:30N 45°12' E 012°40'816.6
2019-Aug-16 10:00N 45°07' E 012°49'917.0
2019-Aug-16 09:29N 44°58' E 012°54'816.9
2019-Aug-16 09:00N 44°51' E 012°59'916.9
2019-Aug-16 08:30N 44°43' E 013°03'9915.2
2019-Aug-16 02:00N 43°30' E 014°36'34614.4 360 / 111014.010.8 24.0
2019-Aug-15 02:00N 37°48' E 015°48'1828.9 360 / 261011.010.8 25.0
2019-Aug-15 01:23N 38°02' E 015°35'821.1
2019-Aug-15 01:00N 38°10' E 015°35'1018.5
2019-Aug-15 00:29N 38°19' E 015°40'1020.6
2019-Aug-15 00:00N 38°28' E 015°36'1120.9
2019-Aug-14 23:29N 38°39' E 015°31'1220.6
2019-Aug-14 22:55N 38°50' E 015°26'5619.2
2019-Aug-14 20:00N 39°42' E 015°00'57 3.5 290 / 171012.010.8 27.025.7
2019-Aug-14 03:46N 40°34' E 014°30'416.9
2019-Aug-14 03:30N 40°32' E 014°24'1316.6
2019-Aug-14 02:44N 40°32' E 014°07'417.0
2019-Aug-14 02:30N 40°33' E 014°02'917.1
2019-Aug-14 02:00N 40°35' E 013°52'6361.5
2019-Aug-14 02:00N 40°30' E 013°48'1118.5 300 / 201011.010.8 24.0
2019-Aug-14 01:25N 40°38' E 013°38'1017.4
2019-Aug-14 00:52N 40°41' E 013°26'205 7.1
2019-Aug-12 19:56N 42°58' E 010°03'614.0
2019-Aug-12 19:29N 43°04' E 010°04'714.0
2019-Aug-12 19:00N 43°11' E 010°06'713.7
2019-Aug-12 18:30N 43°18' E 010°08'713.9
2019-Aug-12 18:00N 43°25' E 010°09'713.2
2019-Aug-12 17:31N 43°31' E 010°13'4 8.7
2019-Aug-12 17:01N 43°33' E 010°18'0 0.1
2019-Aug-12 16:28N 43°33' E 010°18'0 0.0
2019-Aug-12 15:58N 43°33' E 010°18'0 0.0
2019-Aug-12 15:28N 43°33' E 010°18'0 0.0
2019-Aug-12 14:58N 43°33' E 010°18'0 0.0
2019-Aug-12 14:28N 43°33' E 010°18'0 0.0
2019-Aug-12 13:58N 43°33' E 010°18'0 0.0
2019-Aug-12 13:28N 43°33' E 010°18'0 0.0
2019-Aug-12 12:58N 43°33' E 010°18'0 0.0
2019-Aug-12 12:28N 43°33' E 010°18'0 0.0
2019-Aug-12 11:58N 43°33' E 010°18'0 0.0
2019-Aug-12 11:28N 43°33' E 010°18'0 0.0
2019-Aug-12 10:58N 43°33' E 010°18'0 0.0
2019-Aug-12 10:28N 43°33' E 010°18'0 0.0
2019-Aug-12 09:58N 43°33' E 010°18'  
Track history (hours):
 
Tides and Currents Weather Stations Pressure Air Temp Water Temp Dewpoint Dewpoint Depression Visibility Wind Speed Wind Dir Waves Ship Positions

Vision of The Seas

Operator: Royal Caribbean Cruises Ltd

Last reported at 2019-Aug-22 09:30 UTC. Time now 2019-Aug-22 09:32 UTC.
Position N 41°22' E 002°11'.

Type: Passenger vessel. MMSI: 311321000.

Date/timePositionNaut miles runAvg speedWind from/ knotsBaromVisibWave heightAir tempDewpointWater temp
2019-Aug-22 09:30N 41°22' E 002°11'0 0.0
2019-Aug-22 09:00N 41°22' E 002°11'0 0.0
2019-Aug-22 08:30N 41°22' E 002°11'0 0.0
2019-Aug-22 08:00N 41°22' E 002°11'0 0.0
2019-Aug-22 07:30N 41°22' E 002°11'0 0.0
2019-Aug-22 07:00N 41°22' E 002°11'0 0.0
2019-Aug-22 06:27N 41°22' E 002°11'0 0.0
2019-Aug-22 06:00N 41°22' E 002°11'0 0.0
2019-Aug-22 05:30N 41°22' E 002°11'0 0.0
2019-Aug-22 04:57N 41°22' E 002°11'0 0.0
2019-Aug-22 04:30N 41°22' E 002°11'0 0.0
2019-Aug-22 04:01N 41°22' E 002°11'1 1.7
2019-Aug-22 03:30N 41°21' E 002°10'4 7.4
2019-Aug-22 03:01N 41°17' E 002°11'714.2
2019-Aug-22 02:30N 41°12' E 002°18'2919.2
2019-Aug-22 01:00N 40°54' E 002°48'37216.9 330 / 81018.010.8 23.0
2019-Aug-21 03:00N 38°36' E 010°18'12718.1 160 / 111017.010.8 24.0
2019-Aug-20 19:57N 38°27' E 013°00'817.4
2019-Aug-20 19:31N 38°26' E 013°10'917.6
2019-Aug-20 19:01N 38°25' E 013°21'917.6
2019-Aug-20 18:30N 38°25' E 013°33'1117.4
2019-Aug-20 17:51N 38°24' E 013°47'5417.6
2019-Aug-20 14:47N 38°20' E 014°56'517.8
2019-Aug-20 14:30N 38°20' E 015°02'917.9
2019-Aug-20 14:00N 38°20' E 015°14'917.9
2019-Aug-20 13:31N 38°20' E 015°25'917.7
2019-Aug-20 13:01N 38°20' E 015°36'7 7.4
2019-Aug-20 12:05N 38°13' E 015°37'216.3
2019-Aug-20 11:56N 38°11' E 015°37'917.6
2019-Aug-20 11:27N 38°03' E 015°36'817.8
2019-Aug-20 11:00N 37°55' E 015°40'1217.9
2019-Aug-20 10:20N 37°51' E 015°54'279 8.6
2019-Aug-19 02:00N 42°18' E 017°42'167 7.5 300 / 51016.010.8 23.0
2019-Aug-18 03:43N 43°54' E 014°35'421.0
2019-Aug-18 03:30N 43°55' E 014°29'3724.7
2019-Aug-18 02:00N 44°18' E 013°48'550.3 040 / 51016.010.8 24.0
2019-Aug-18 01:54N 44°16' E 013°54'1021.4
2019-Aug-18 01:27N 44°24' E 013°46'921.3
2019-Aug-18 01:00N 44°32' E 013°39'1121.2
2019-Aug-18 00:30N 44°40' E 013°30'1121.4
2019-Aug-18 00:00N 44°49' E 013°22'1121.3
2019-Aug-17 23:30N 44°58' E 013°13'1121.3
2019-Aug-17 23:00N 45°05' E 013°02'1121.4
2019-Aug-17 22:30N 45°12' E 012°50'1019.3
2019-Aug-17 22:00N 45°18' E 012°40'816.0
2019-Aug-17 21:30N 45°23' E 012°30'510.3
2019-Aug-17 21:00N 45°26' E 012°24'2 4.7
2019-Aug-17 20:30N 45°26' E 012°21'2 4.0
2019-Aug-17 20:00N 45°26' E 012°18'0 0.9
2019-Aug-17 19:28N 45°26' E 012°18'0 0.0
2019-Aug-17 18:58N 45°26' E 012°18'0 0.0
2019-Aug-17 18:28N 45°26' E 012°18'0 0.0
2019-Aug-17 17:28N 45°26' E 012°18'0 0.0
2019-Aug-17 16:58N 45°26' E 012°18'0 0.0
2019-Aug-17 16:28N 45°26' E 012°18'0 0.0
2019-Aug-17 15:58N 45°26' E 012°18'0 0.0
2019-Aug-17 15:28N 45°26' E 012°18'0 0.0
2019-Aug-17 14:58N 45°26' E 012°18'0 0.0
2019-Aug-17 14:28N 45°26' E 012°18'0 0.0
2019-Aug-17 13:58N 45°26' E 012°18'0 0.0
2019-Aug-17 13:19N 45°26' E 012°18'0 0.0
2019-Aug-17 12:58N 45°26' E 012°18'0 0.0
2019-Aug-17 12:28N 45°26' E 012°18'0 0.0
2019-Aug-17 11:49N 45°26' E 012°18'0 0.0
2019-Aug-17 11:28N 45°26' E 012°18'0 0.0
2019-Aug-17 10:58N 45°26' E 012°18'0 0.0
2019-Aug-17 10:22N 45°26' E 012°18'0 0.0
2019-Aug-17 09:58N 45°26' E 012°18'0 0.0
2019-Aug-17 09:19N 45°26' E 012°18'0 0.0
2019-Aug-17 08:58N 45°26' E 012°18'0 0.0
2019-Aug-17 08:28N 45°26' E 012°18'0 0.0
2019-Aug-17 07:58N 45°26' E 012°18'0 0.0
2019-Aug-17 07:28N 45°26' E 012°18'0 0.0
2019-Aug-17 06:49N 45°26' E 012°18'0 0.0
2019-Aug-17 06:22N 45°26' E 012°18'0 0.0
2019-Aug-17 05:58N 45°26' E 012°18'0 0.0
2019-Aug-17 05:28N 45°26' E 012°18'0 0.0
2019-Aug-17 04:58N 45°26' E 012°18'0 0.0
2019-Aug-17 04:28N 45°26' E 012°18'0 0.0
2019-Aug-17 03:58N 45°26' E 012°18'0 0.0
2019-Aug-17 03:28N 45°26' E 012°18'0 0.0
2019-Aug-17 02:58N 45°26' E 012°18'0 0.0
2019-Aug-17 02:28N 45°26' E 012°18'0 0.0
2019-Aug-17 01:58N 45°26' E 012°18'0 0.0
2019-Aug-17 01:28N 45°26' E 012°18'0 0.0
2019-Aug-17 00:58N 45°26' E 012°18'0 0.0
2019-Aug-17 00:28N 45°26' E 012°18'0 0.0
2019-Aug-16 23:58N 45°26' E 012°18'0 0.0
2019-Aug-16 23:28N 45°26' E 012°18'0 0.0
2019-Aug-16 22:58N 45°26' E 012°18'0 0.0
2019-Aug-16 22:28N 45°26' E 012°18'0 0.0
2019-Aug-16 21:58N 45°26' E 012°18'0 0.0
2019-Aug-16 21:25N 45°26' E 012°18'0 0.0
2019-Aug-16 20:55N 45°26' E 012°18'0 0.0
2019-Aug-16 20:28N 45°26' E 012°18'0 0.0
2019-Aug-16 19:58N 45°26' E 012°18'0 0.0
2019-Aug-16 19:28N 45°26' E 012°18'0 0.0
2019-Aug-16 18:58N 45°26' E 012°18'0 0.0
2019-Aug-16 18:28N 45°26' E 012°18'0 0.0
2019-Aug-16 17:55N 45°26' E 012°18'0 0.0
2019-Aug-16 17:28N 45°26' E 012°18'0 0.0
2019-Aug-16 16:55N 45°26' E 012°18'0 0.0
2019-Aug-16 16:28N 45°26' E 012°18'0 0.0
2019-Aug-16 15:58N 45°26' E 012°18'0 0.0
2019-Aug-16 15:28N 45°26' E 012°18'0 0.0
2019-Aug-16 14:55N 45°26' E 012°18'0 0.0
2019-Aug-16 14:28N 45°26' E 012°18'0 0.0
2019-Aug-16 13:55N 45°26' E 012°18'0 0.0
2019-Aug-16 13:25N 45°26' E 012°18'0 0.3
2019-Aug-16 13:00N 45°26' E 012°18'2 3.1
2019-Aug-16 12:30N 45°26' E 012°20'2 4.3
2019-Aug-16 12:00N 45°26' E 012°23'4 8.1
2019-Aug-16 11:30N 45°24' E 012°28'713.9
2019-Aug-16 11:00N 45°18' E 012°32'816.2
2019-Aug-16 10:30N 45°12' E 012°40'816.6
2019-Aug-16 10:00N 45°07' E 012°49'917.0
2019-Aug-16 09:29N 44°58' E 012°54'816.9
2019-Aug-16 09:00N 44°51' E 012°59'916.9
2019-Aug-16 08:30N 44°43' E 013°03'9915.2
2019-Aug-16 02:00N 43°30' E 014°36'34614.4 360 / 111014.010.8 24.0
2019-Aug-15 02:00N 37°48' E 015°48'1828.9 360 / 261011.010.8 25.0
2019-Aug-15 01:23N 38°02' E 015°35'821.1
2019-Aug-15 01:00N 38°10' E 015°35'1018.5
2019-Aug-15 00:29N 38°19' E 015°40'1020.6
2019-Aug-15 00:00N 38°28' E 015°36'1120.9
2019-Aug-14 23:29N 38°39' E 015°31'1220.6
2019-Aug-14 22:55N 38°50' E 015°26'5619.2
2019-Aug-14 20:00N 39°42' E 015°00'57 3.5 290 / 171012.010.8 27.025.7
2019-Aug-14 03:46N 40°34' E 014°30'416.9
2019-Aug-14 03:30N 40°32' E 014°24'1316.6
2019-Aug-14 02:44N 40°32' E 014°07'417.0
2019-Aug-14 02:30N 40°33' E 014°02'917.1
2019-Aug-14 02:00N 40°35' E 013°52'6361.5
2019-Aug-14 02:00N 40°30' E 013°48'1118.5 300 / 201011.010.8 24.0
2019-Aug-14 01:25N 40°38' E 013°38'1017.4
2019-Aug-14 00:52N 40°41' E 013°26'205 7.1
2019-Aug-12 19:56N 42°58' E 010°03'614.0
2019-Aug-12 19:29N 43°04' E 010°04'714.0
2019-Aug-12 19:00N 43°11' E 010°06'713.7
2019-Aug-12 18:30N 43°18' E 010°08'713.9
2019-Aug-12 18:00N 43°25' E 010°09'713.2
2019-Aug-12 17:31N 43°31' E 010°13'4 8.7
2019-Aug-12 17:01N 43°33' E 010°18'0 0.1
2019-Aug-12 16:28N 43°33' E 010°18'0 0.0
2019-Aug-12 15:58N 43°33' E 010°18'0 0.0
2019-Aug-12 15:28N 43°33' E 010°18'0 0.0
2019-Aug-12 14:58N 43°33' E 010°18'0 0.0
2019-Aug-12 14:28N 43°33' E 010°18'0 0.0
2019-Aug-12 13:58N 43°33' E 010°18'0 0.0
2019-Aug-12 13:28N 43°33' E 010°18'0 0.0
2019-Aug-12 12:58N 43°33' E 010°18'0 0.0
2019-Aug-12 12:28N 43°33' E 010°18'0 0.0
2019-Aug-12 11:58N 43°33' E 010°18'0 0.0
2019-Aug-12 11:28N 43°33' E 010°18'0 0.0
2019-Aug-12 10:58N 43°33' E 010°18'0 0.0
2019-Aug-12 10:28N 43°33' E 010°18'0 0.0
2019-Aug-12 09:58N 43°33' E 010°18'  

Dump ship's entire track history